Time;durP1;ratioP1;P1;durP2;ratioP2;P2;SDS_P1;SDS_P2;PMS_P1;PMS_P2;Temp;Humidity;BMP_temperature;BMP_pressure;BME280_temperature;BME280_humidity;BME280_pressure;Samples;Min_cycle;Max_cycle;Signal;HPM_P1;HPM_P2
2022/09/08 00:00:47;;;;;;;4.37;1.60;;;17.40;99.90;;;;;;5115611;28;20370;-78
2022/09/08 00:03:16;;;;;;;3.88;1.70;;;17.50;99.90;;;;;;5115880;28;20375;-77
2022/09/08 00:06:16;;;;;;;6.88;1.70;;;17.50;99.90;;;;;;5115669;28;20359;-77
2022/09/08 00:08:45;;;;;;;3.95;1.50;;;17.50;99.90;;;;;;5032627;28;20425;-77
2022/09/08 00:11:18;;;;;;;4.93;1.60;;;17.60;99.90;;;;;;5033237;28;20417;-78
2022/09/08 00:13:47;;;;;;;4.30;1.60;;;17.90;99.90;;;;;;5033159;28;20394;-77
2022/09/08 00:16:18;;;;;;;3.47;1.50;;;17.90;99.90;;;;;;5036573;28;20472;-77
2022/09/08 00:18:47;;;;;;;3.15;1.50;;;17.90;99.90;;;;;;5039025;28;20386;-77
2022/09/08 00:21:14;;;;;;;4.55;1.55;;;17.80;99.90;;;;;;5032820;28;20412;-78
2022/09/08 00:23:41;;;;;;;1.98;1.00;;;17.90;99.90;;;;;;5032757;28;20404;-78
2022/09/08 00:26:08;;;;;;;3.55;1.20;;;18.00;99.90;;;;;;5032931;28;20533;-77
2022/09/08 00:28:36;;;;;;;2.22;1.15;;;18.00;99.90;;;;;;5032795;28;20753;-77
2022/09/08 00:31:06;;;;;;;4.77;1.10;;;18.10;99.90;;;;;;5032486;28;20492;-77
2022/09/08 00:33:33;;;;;;;3.55;1.00;;;18.10;99.90;;;;;;5032441;28;20420;-78
2022/09/08 00:36:03;;;;;;;3.92;1.13;;;18.20;99.90;;;;;;5032673;28;20397;-78
2022/09/08 00:38:32;;;;;;;3.10;1.30;;;18.30;99.90;;;;;;5032602;28;20377;-77
2022/09/08 00:41:00;;;;;;;3.40;1.10;;;18.50;99.90;;;;;;5032415;28;20385;-77
2022/09/08 00:43:36;;;;;;;3.53;1.15;;;18.80;99.90;;;;;;5032446;28;20401;-76
2022/09/08 00:46:27;;;;;;;4.05;1.25;;;19.00;99.90;;;;;;5109342;28;20371;-77
2022/09/08 00:48:58;;;;;;;3.08;1.10;;;18.90;99.90;;;;;;5113578;28;20516;-77
2022/09/08 00:51:27;;;;;;;2.92;1.00;;;18.90;99.90;;;;;;5115554;28;20528;-78
2022/09/08 00:53:57;;;;;;;5.32;1.10;;;19.10;99.90;;;;;;5096576;28;20387;-78
2022/09/08 00:56:27;;;;;;;2.20;1.10;;;19.00;99.90;;;;;;5114736;28;20367;-77
2022/09/08 00:58:55;;;;;;;4.57;1.10;;;19.00;99.90;;;;;;5114490;28;20390;-77
2022/09/08 01:01:23;;;;;;;3.10;0.88;;;19.20;99.90;;;;;;5114685;28;20363;-78
2022/09/08 01:03:50;;;;;;;2.55;1.00;;;19.40;99.90;;;;;;5114366;28;20371;-76
2022/09/08 01:12:52;;;;;;;3.17;1.10;;;19.80;99.90;;;;;;5114577;28;20410;-78
2022/09/08 01:15:23;;;;;;;2.50;1.00;;;19.70;99.90;;;;;;5114888;28;20359;-78
2022/09/08 01:17:52;;;;;;;2.13;1.00;;;19.90;99.90;;;;;;5114463;28;20417;-78
2022/09/08 01:20:23;;;;;;;2.40;1.20;;;20.20;99.90;;;;;;5114277;28;20362;-74
2022/09/08 01:22:59;;;;;;;3.58;1.20;;;20.30;99.70;;;;;;5114366;28;20697;-74
2022/09/08 01:25:54;;;;;;;4.22;1.20;;;20.50;99.90;;;;;;5114240;28;20395;-75
2022/09/08 01:28:35;;;;;;;3.20;1.07;;;21.20;98.20;;;;;;5114988;28;20443;-76
2022/09/08 01:31:05;;;;;;;3.00;1.10;;;22.00;94.60;;;;;;5114431;28;20425;-75
2022/09/08 01:33:32;;;;;;;3.40;1.05;;;22.50;93.80;;;;;;5114343;28;20387;-74
2022/09/08 01:35:59;;;;;;;3.33;1.17;;;22.90;92.50;;;;;;5114057;28;20818;-75
2022/09/08 01:38:26;;;;;;;2.33;1.10;;;22.80;90.90;;;;;;5095777;28;20379;-75
2022/09/08 01:40:54;;;;;;;2.13;1.10;;;22.70;91.20;;;;;;5114214;28;20370;-75
2022/09/08 01:43:21;;;;;;;3.08;1.15;;;22.60;91.70;;;;;;5113936;28;20398;-82
2022/09/08 01:45:48;;;;;;;1.85;1.00;;;22.80;91.30;;;;;;5114458;28;20370;-77
2022/09/08 01:48:15;;;;;;;2.55;1.08;;;23.00;91.50;;;;;;5113666;28;20375;-78
2022/09/08 01:50:42;;;;;;;2.55;0.90;;;23.40;90.50;;;;;;5113991;28;20366;-77
2022/09/08 01:53:09;;;;;;;3.25;1.10;;;23.60;87.00;;;;;;5114184;28;20405;-79
2022/09/08 01:55:36;;;;;;;4.53;1.05;;;23.70;86.70;;;;;;5113520;28;20366;-79
2022/09/08 01:58:04;;;;;;;5.75;1.20;;;24.00;84.10;;;;;;5113693;28;20382;-78
2022/09/08 02:00:31;;;;;;;3.22;1.00;;;23.90;82.50;;;;;;5113441;28;20371;-74
2022/09/08 02:02:58;;;;;;;2.63;1.02;;;24.30;83.20;;;;;;5113357;28;20374;-77
2022/09/08 02:05:25;;;;;;;2.10;1.10;;;25.10;80.10;;;;;;5113478;28;20895;-78
2022/09/08 02:07:52;;;;;;;3.40;1.00;;;25.70;75.60;;;;;;5114084;28;20756;-79
2022/09/08 02:10:20;;;;;;;2.20;0.80;;;26.20;72.70;;;;;;5113091;28;20383;-78
2022/09/08 02:12:47;;;;;;;2.20;1.00;;;26.30;72.70;;;;;;5113217;28;20930;-75
2022/09/08 02:15:14;;;;;;;4.65;1.02;;;26.60;69.30;;;;;;5113882;28;20391;-78
2022/09/08 02:17:41;;;;;;;2.53;0.90;;;26.80;67.90;;;;;;5113404;28;20483;-76
2022/09/08 02:20:08;;;;;;;3.93;1.20;;;27.20;66.90;;;;;;5113421;28;20394;-76
2022/09/08 02:22:35;;;;;;;2.00;0.90;;;27.70;65.20;;;;;;5113160;28;20375;-76
2022/09/08 02:25:03;;;;;;;2.03;1.00;;;27.80;61.80;;;;;;5113016;28;20785;-79
2022/09/08 02:27:30;;;;;;;1.70;1.00;;;27.50;62.20;;;;;;5113272;28;20374;-79
2022/09/08 02:29:57;;;;;;;1.92;1.05;;;27.20;62.30;;;;;;5113420;28;20374;-79
2022/09/08 02:32:24;;;;;;;3.23;1.17;;;27.30;62.60;;;;;;5112960;28;20394;-77
2022/09/08 02:34:52;;;;;;;2.33;1.07;;;27.40;60.10;;;;;;5113001;28;20367;-75
2022/09/08 02:37:19;;;;;;;2.22;1.00;;;27.10;61.50;;;;;;5113152;28;20853;-77
2022/09/08 02:39:47;;;;;;;1.73;1.02;;;27.20;61.40;;;;;;5112755;28;20436;-73
2022/09/08 02:42:15;;;;;;;2.22;1.05;;;27.20;60.10;;;;;;5113186;28;20377;-78
2022/09/08 02:44:42;;;;;;;2.63;1.30;;;27.60;60.20;;;;;;5112556;28;20355;-77
2022/09/08 02:47:09;;;;;;;3.85;1.20;;;27.90;58.90;;;;;;5112780;28;20757;-77
2022/09/08 02:49:36;;;;;;;2.22;1.20;;;27.70;58.90;;;;;;5112827;28;20854;-76
2022/09/08 02:52:04;;;;;;;4.65;1.25;;;27.90;57.40;;;;;;5112803;28;20391;-76
2022/09/08 02:54:31;;;;;;;3.83;1.10;;;27.90;57.70;;;;;;5113192;28;20375;-74
2022/09/08 02:56:59;;;;;;;5.93;1.25;;;28.00;58.10;;;;;;5114619;28;20358;-78
2022/09/08 02:59:26;;;;;;;1.77;1.02;;;28.40;57.90;;;;;;5097715;28;20400;-78
2022/09/08 03:01:53;;;;;;;3.10;1.17;;;28.60;57.80;;;;;;5118443;28;20450;-78
2022/09/08 03:04:20;;;;;;;2.60;1.20;;;28.50;56.40;;;;;;5114821;28;20374;-74
2022/09/08 03:06:47;;;;;;;5.18;1.40;;;27.70;56.50;;;;;;5113470;28;20379;-78
2022/09/08 03:09:14;;;;;;;1.85;1.20;;;26.90;56.50;;;;;;5112996;28;20402;-78
2022/09/08 03:11:41;;;;;;;2.35;1.25;;;26.20;58.80;;;;;;5113010;28;20394;-75
2022/09/08 03:14:09;;;;;;;3.97;1.30;;;25.70;60.40;;;;;;5117428;28;20405;-74
2022/09/08 03:16:39;;;;;;;2.20;1.30;;;25.30;61.10;;;;;;5117056;28;20379;-79
2022/09/08 03:19:08;;;;;;;2.17;1.10;;;24.90;62.10;;;;;;5116748;28;20363;-75
2022/09/08 03:21:35;;;;;;;2.28;1.20;;;24.50;63.00;;;;;;5116816;28;20367;-81
2022/09/08 03:24:02;;;;;;;2.90;1.13;;;24.20;64.00;;;;;;5117057;28;20378;-79
2022/09/08 03:26:29;;;;;;;3.17;1.10;;;24.00;64.50;;;;;;5116813;28;20375;-81
2022/09/08 03:28:56;;;;;;;1.63;1.02;;;23.80;64.30;;;;;;5117617;28;20732;-82
2022/09/08 03:31:24;;;;;;;2.75;1.10;;;23.60;65.60;;;;;;5116596;28;20363;-80
2022/09/08 03:33:51;;;;;;;2.83;1.10;;;23.60;65.90;;;;;;5116428;28;20377;-83
2022/09/08 03:36:19;;;;;;;1.95;1.08;;;23.50;66.80;;;;;;5116790;28;20367;-79
2022/09/08 03:38:46;;;;;;;2.83;1.20;;;23.60;66.80;;;;;;5116616;28;20371;-79
2022/09/08 03:41:15;;;;;;;5.43;1.52;;;23.50;67.10;;;;;;5116513;28;20366;-79
2022/09/08 03:43:48;;;;;;;11.77;3.00;;;23.50;67.30;;;;;;5116114;28;20712;-78
2022/09/08 03:46:16;;;;;;;4.37;1.57;;;23.50;68.20;;;;;;5115893;28;20371;-76
2022/09/08 03:48:43;;;;;;;55.53;5.07;;;23.50;66.90;;;;;;5115864;28;20412;-78
2022/09/08 03:51:25;;;;;;;18.67;2.67;;;23.40;68.90;;;;;;5080728;28;20370;-81
2022/09/08 03:56:45;;;;;;;9.45;1.70;;;23.20;70.00;;;;;;5116325;28;20354;-80
2022/09/08 03:59:12;;;;;;;57.07;7.40;;;23.30;70.30;;;;;;5115874;28;20374;-77
2022/09/08 04:01:40;;;;;;;40.00;6.10;;;23.40;69.50;;;;;;5115738;28;20880;-76
2022/09/08 04:04:07;;;;;;;3.20;1.20;;;23.40;69.90;;;;;;5115943;28;20393;-79
2022/09/08 04:06:34;;;;;;;1.92;1.25;;;23.20;68.40;;;;;;5115719;28;20359;-78
2022/09/08 04:09:01;;;;;;;2.47;1.10;;;23.00;70.90;;;;;;5097500;28;20794;-79
2022/09/08 04:11:29;;;;;;;2.50;1.00;;;22.90;71.60;;;;;;5115535;28;20371;-81
2022/09/08 04:13:56;;;;;;;2.60;1.10;;;22.60;72.20;;;;;;5115804;28;20375;-83
2022/09/08 04:16:24;;;;;;;4.70;1.10;;;22.60;74.40;;;;;;5115661;28;20367;-79
2022/09/08 04:18:51;;;;;;;2.60;1.02;;;22.70;74.30;;;;;;5115504;28;20366;-79
2022/09/08 04:21:18;;;;;;;3.67;1.20;;;22.60;74.30;;;;;;5115882;28;20379;-79
2022/09/08 04:23:45;;;;;;;3.35;1.23;;;22.60;74.30;;;;;;5113975;28;20915;-80
2022/09/08 04:26:14;;;;;;;2.60;1.20;;;23.10;74.40;;;;;;5115252;28;20367;-84
2022/09/08 04:28:42;;;;;;;1.90;1.05;;;23.80;72.40;;;;;;5115310;28;20419;-81
2022/09/08 04:31:13;;;;;;;3.03;0.98;;;24.80;70.00;;;;;;5115432;28;20378;-80
2022/09/08 04:33:40;;;;;;;4.57;1.10;;;25.40;67.40;;;;;;5115327;28;20396;-77
2022/09/08 04:36:11;;;;;;;3.33;1.00;;;25.60;65.30;;;;;;5115307;28;20375;-78
2022/09/08 04:38:39;;;;;;;3.60;1.10;;;25.30;65.60;;;;;;5114945;28;20503;-80
2022/09/08 04:41:13;;;;;;;3.85;1.30;;;24.80;67.40;;;;;;5114750;28;20359;-80
2022/09/08 04:43:41;;;;;;;3.13;1.10;;;24.40;68.00;;;;;;5114965;28;20454;-80
2022/09/08 04:46:11;;;;;;;2.40;1.10;;;24.20;68.10;;;;;;5115321;28;20367;-80
2022/09/08 04:48:39;;;;;;;3.90;1.30;;;24.40;69.40;;;;;;5114781;28;20901;-81
2022/09/08 04:51:07;;;;;;;3.47;1.20;;;25.00;68.60;;;;;;5114916;28;20802;-81
2022/09/08 04:53:36;;;;;;;2.92;1.00;;;25.60;65.90;;;;;;5114663;28;20479;-82
2022/09/08 04:56:05;;;;;;;3.38;1.10;;;25.50;64.50;;;;;;5114756;28;20369;-81
2022/09/08 04:58:35;;;;;;;3.10;1.17;;;25.10;65.80;;;;;;5114584;28;20452;-79
2022/09/08 05:01:10;;;;;;;2.70;1.15;;;25.60;65.60;;;;;;5114277;28;20436;-87
2022/09/08 05:03:37;;;;;;;3.67;1.30;;;26.00;64.20;;;;;;5114506;28;20917;-82
2022/09/08 05:06:06;;;;;;;4.95;1.60;;;26.00;65.00;;;;;;5114675;28;20382;-84
2022/09/08 05:08:33;;;;;;;3.25;1.30;;;25.70;64.90;;;;;;5114387;28;20378;-78
2022/09/08 05:11:01;;;;;;;4.78;1.38;;;25.90;64.30;;;;;;5114480;28;20370;-80
2022/09/08 05:13:29;;;;;;;5.00;1.40;;;26.00;64.70;;;;;;5114274;28;20399;-80
2022/09/08 05:16:08;;;;;;;5.70;1.50;;;26.40;64.10;;;;;;5114281;28;20447;-79
2022/09/08 05:18:36;;;;;;;7.03;1.50;;;26.60;62.70;;;;;;5114373;28;20854;-80
2022/09/08 05:21:04;;;;;;;4.10;1.30;;;27.00;62.20;;;;;;5114305;28;20374;-79
2022/09/08 05:23:32;;;;;;;5.28;1.50;;;26.80;62.30;;;;;;5114222;28;20367;-81
2022/09/08 05:26:08;;;;;;;6.03;1.50;;;26.70;61.80;;;;;;5114186;28;20474;-79
2022/09/08 05:28:37;;;;;;;3.90;1.38;;;26.90;62.40;;;;;;5114148;28;20441;-80
2022/09/08 05:31:06;;;;;;;6.37;1.33;;;27.10;61.00;;;;;;5114005;28;20378;-79
2022/09/08 05:33:34;;;;;;;3.65;1.20;;;27.30;60.90;;;;;;5113908;28;20390;-80
2022/09/08 05:36:01;;;;;;;3.78;1.27;;;27.50;60.00;;;;;;5113470;28;20435;-79
2022/09/08 05:38:29;;;;;;;5.55;1.40;;;26.90;61.10;;;;;;5113732;28;20366;-79
2022/09/08 05:40:59;;;;;;;4.45;1.20;;;26.90;60.50;;;;;;5113786;28;20703;-80
2022/09/08 05:43:26;;;;;;;4.95;1.70;;;26.70;60.50;;;;;;5114080;28;20389;-78
2022/09/08 05:45:53;;;;;;;6.50;1.67;;;26.50;60.30;;;;;;5113656;28;20367;-78
2022/09/08 05:48:20;;;;;;;4.40;1.33;;;25.50;61.30;;;;;;5113547;28;20845;-79
2022/09/08 05:50:47;;;;;;;5.53;1.63;;;24.30;63.20;;;;;;5113648;28;20371;-79
2022/09/08 05:53:16;;;;;;;3.92;1.52;;;23.30;65.60;;;;;;5113603;28;20395;-77
2022/09/08 05:55:54;;;;;;;4.77;1.33;;;22.80;67.60;;;;;;5095189;28;20820;-79
2022/09/08 05:58:21;;;;;;;5.40;1.30;;;22.70;68.10;;;;;;5114058;28;20382;-79
2022/09/08 06:00:57;;;;;;;3.15;1.17;;;22.60;68.40;;;;;;5113365;28;20458;-75
2022/09/08 06:03:25;;;;;;;5.80;1.50;;;22.40;68.60;;;;;;5114630;28;20425;-82
2022/09/08 06:05:54;;;;;;;5.30;1.40;;;22.20;68.90;;;;;;5118015;28;20367;-77
2022/09/08 06:08:22;;;;;;;5.85;1.30;;;22.00;69.30;;;;;;5119072;28;20446;-75
2022/09/08 06:10:51;;;;;;;4.10;1.30;;;21.90;70.10;;;;;;5114935;28;20442;-76
2022/09/08 06:13:19;;;;;;;6.17;1.40;;;21.90;72.00;;;;;;5113813;28;20404;-74
2022/09/08 06:15:46;;;;;;;5.97;1.60;;;21.80;72.70;;;;;;5113487;28;20412;-74
2022/09/08 06:18:18;;;;;;;5.93;1.60;;;21.60;73.10;;;;;;5112404;28;20394;-73
2022/09/08 06:20:46;;;;;;;5.55;1.70;;;21.40;74.30;;;;;;5113058;28;20907;-74
2022/09/08 06:23:14;;;;;;;6.90;1.70;;;21.40;74.80;;;;;;5113021;28;20377;-79
2022/09/08 06:25:43;;;;;;;6.38;1.58;;;21.40;75.50;;;;;;5113052;28;20379;-76
2022/09/08 06:28:37;;;;;;;6.90;1.70;;;21.20;76.40;;;;;;5113360;28;20375;-78
2022/09/08 06:31:09;;;;;;;7.05;1.65;;;21.00;79.00;;;;;;5112972;28;20357;-76
2022/09/08 06:33:40;;;;;;;8.32;1.95;;;20.70;80.10;;;;;;5113420;28;20417;-76
2022/09/08 06:36:29;;;;;;;7.32;2.55;;;20.70;81.00;;;;;;5113188;28;20437;-75
2022/09/08 06:39:06;;;;;;;7.10;2.30;;;20.70;82.90;;;;;;5112734;28;20424;-76
2022/09/08 06:41:46;;;;;;;7.82;2.30;;;20.60;84.20;;;;;;5112970;28;20370;-77
2022/09/08 06:44:19;;;;;;;5.93;1.70;;;20.40;85.50;;;;;;5112614;28;20730;-76
2022/09/08 06:46:47;;;;;;;7.82;1.80;;;20.20;87.00;;;;;;5111924;28;20486;-77
2022/09/08 06:49:14;;;;;;;7.22;1.60;;;20.00;88.80;;;;;;5112834;28;20375;-75
2022/09/08 06:52:23;;;;;;;4.13;1.55;;;19.90;90.50;;;;;;5112435;28;20394;-75
2022/09/08 06:54:53;;;;;;;3.80;1.50;;;19.80;90.40;;;;;;5049822;28;20387;-75
2022/09/08 06:58:00;;;;;;;7.13;1.80;;;19.70;90.50;;;;;;5050033;28;20379;-75
2022/09/08 07:00:42;;;;;;;6.13;1.73;;;19.50;91.30;;;;;;5050745;28;20422;-75
2022/09/08 07:03:28;;;;;;;7.18;1.90;;;19.40;92.50;;;;;;5050462;28;20463;-74
2022/09/08 07:06:08;;;;;;;6.97;2.20;;;19.20;93.60;;;;;;5050171;28;20446;-75
2022/09/08 07:08:55;;;;;;;6.75;1.60;;;19.10;94.50;;;;;;5050455;28;20396;-75
2022/09/08 07:11:44;;;;;;;5.97;1.60;;;19.00;95.70;;;;;;5051288;28;20375;-74
2022/09/08 07:14:23;;;;;;;5.20;1.50;;;18.90;96.90;;;;;;5052268;28;20442;-74
2022/09/08 07:17:26;;;;;;;5.72;1.60;;;18.80;97.70;;;;;;5053715;28;20372;-74
2022/09/08 07:19:57;;;;;;;6.43;1.70;;;18.70;98.70;;;;;;5034485;28;20380;-76
2022/09/08 07:22:33;;;;;;;5.32;1.58;;;18.50;99.70;;;;;;5054153;28;20943;-75
2022/09/08 07:25:15;;;;;;;7.30;1.80;;;18.40;99.90;;;;;;5055869;28;20372;-76
2022/09/08 07:27:46;;;;;;;7.67;1.60;;;18.30;99.90;;;;;;5068158;28;20541;-75
2022/09/08 07:30:16;;;;;;;7.45;1.85;;;18.20;99.90;;;;;;5133389;28;20355;-76
2022/09/08 07:32:54;;;;;;;4.53;1.50;;;18.20;99.90;;;;;;5131994;28;20484;-76
2022/09/08 07:35:52;;;;;;;6.53;1.42;;;18.20;99.90;;;;;;5128128;28;20395;-77
2022/09/08 07:38:46;;;;;;;6.75;1.65;;;18.10;99.90;;;;;;5118423;28;20406;-75
2022/09/08 07:41:21;;;;;;;7.10;1.67;;;18.00;99.90;;;;;;5116477;28;20378;-75
2022/09/08 07:43:54;;;;;;;9.52;1.85;;;17.90;99.90;;;;;;5113277;28;20451;-76
2022/09/08 07:46:32;;;;;;;11.00;1.90;;;17.90;99.90;;;;;;5113091;28;20367;-75
2022/09/08 07:49:08;;;;;;;6.90;1.90;;;17.80;99.90;;;;;;5094611;28;20377;-75
2022/09/08 07:51:58;;;;;;;7.70;1.83;;;17.70;99.90;;;;;;5112493;28;20770;-75
2022/09/08 07:55:03;;;;;;;8.25;2.00;;;17.70;99.90;;;;;;5112855;28;20363;-75
2022/09/08 07:57:57;;;;;;;8.30;1.95;;;17.60;99.90;;;;;;5112658;28;20416;-75
2022/09/08 08:00:43;;;;;;;8.85;1.80;;;17.50;99.90;;;;;;5116123;28;20369;-74
2022/09/08 08:03:17;;;;;;;7.43;2.05;;;17.50;99.90;;;;;;5115718;28;20412;-74
2022/09/08 08:06:06;;;;;;;7.43;2.00;;;17.40;99.90;;;;;;5116425;28;20435;-74
2022/09/08 08:08:51;;;;;;;7.22;1.92;;;17.40;99.90;;;;;;5115416;28;20386;-74
2022/09/08 08:11:59;;;;;;;10.20;2.13;;;17.30;99.90;;;;;;5097506;28;20933;-74
2022/09/08 08:14:37;;;;;;;9.63;1.90;;;17.20;99.90;;;;;;5032980;28;20397;-75
2022/09/08 08:17:32;;;;;;;9.40;1.98;;;17.20;99.90;;;;;;5016761;28;20924;-75
2022/09/08 08:20:26;;;;;;;11.52;2.53;;;17.10;99.90;;;;;;5032684;28;20481;-75
2022/09/08 08:23:17;;;;;;;10.45;2.25;;;17.10;99.90;;;;;;5032789;28;20417;-76
2022/09/08 08:25:58;;;;;;;7.93;2.17;;;17.00;99.90;;;;;;5033437;28;20832;-76
2022/09/08 08:28:25;;;;;;;8.07;2.30;;;17.00;99.90;;;;;;5032783;28;20909;-77
2022/09/08 08:31:01;;;;;;;9.80;2.17;;;17.00;99.90;;;;;;5032556;28;20378;-78
2022/09/08 08:33:51;;;;;;;9.32;2.30;;;17.00;99.90;;;;;;5032389;28;20497;-75
2022/09/08 08:36:23;;;;;;;9.90;2.17;;;16.90;99.90;;;;;;5032470;28;20824;-78
2022/09/08 08:39:00;;;;;;;10.30;2.13;;;16.90;99.90;;;;;;5032328;28;20378;-74
2022/09/08 08:41:36;;;;;;;9.70;2.13;;;16.90;99.90;;;;;;5032289;28;20365;-75
2022/09/08 08:44:21;;;;;;;8.60;2.30;;;17.10;99.90;;;;;;5015907;28;20891;-74
2022/09/08 08:46:48;;;;;;;10.55;2.30;;;16.90;99.90;;;;;;5033206;28;20942;-76
2022/09/08 08:49:37;;;;;;;7.68;2.25;;;17.00;99.90;;;;;;5052975;28;20847;-75
2022/09/08 08:52:11;;;;;;;8.85;2.25;;;16.90;99.90;;;;;;5115394;28;20477;-75
2022/09/08 08:54:56;;;;;;;9.15;2.30;;;16.90;99.90;;;;;;5115288;28;20381;-75
2022/09/08 08:57:44;;;;;;;8.20;2.20;;;16.90;99.90;;;;;;5115364;28;20842;-76
2022/09/08 09:00:22;;;;;;;10.68;2.33;;;16.90;99.90;;;;;;5115174;28;20835;-75
2022/09/08 09:03:18;;;;;;;10.38;2.10;;;16.90;99.90;;;;;;5114635;28;20405;-76
2022/09/08 09:06:14;;;;;;;8.73;2.30;;;16.90;99.90;;;;;;5097766;28;20375;-75
2022/09/08 09:09:17;;;;;;;11.82;2.08;;;16.90;99.90;;;;;;5118373;28;20866;-80
2022/09/08 09:11:58;;;;;;;9.23;2.30;;;16.90;99.90;;;;;;5118581;28;20363;-76
2022/09/08 09:14:34;;;;;;;10.17;2.33;;;16.90;99.90;;;;;;5116393;28;20375;-81
2022/09/08 09:17:22;;;;;;;9.23;2.25;;;16.90;99.90;;;;;;5115766;28;20922;-81
2022/09/08 09:19:58;;;;;;;9.77;2.20;;;16.80;99.90;;;;;;5114839;28;20814;-83
2022/09/08 09:23:09;;;;;;;10.30;2.67;;;16.80;99.90;;;;;;5114538;28;20371;-77
2022/09/08 09:25:45;;;;;;;8.70;2.20;;;16.90;99.90;;;;;;5032416;28;20381;-76
2022/09/08 09:28:45;;;;;;;9.65;2.17;;;16.90;99.90;;;;;;5031835;28;20369;-77
2022/09/08 09:31:34;;;;;;;12.18;2.50;;;16.90;99.90;;;;;;5032270;28;20857;-76
2022/09/08 09:34:07;;;;;;;14.23;2.65;;;16.90;99.90;;;;;;5031917;28;20384;-79
2022/09/08 09:37:08;;;;;;;10.85;2.50;;;16.80;99.90;;;;;;5032228;28;20424;-78
2022/09/08 09:39:59;;;;;;;13.13;2.80;;;16.80;99.90;;;;;;5032178;28;20378;-77
2022/09/08 09:42:51;;;;;;;7.97;2.10;;;16.80;99.90;;;;;;5031391;28;20516;-76
2022/09/08 09:45:54;;;;;;;8.70;2.30;;;16.70;99.90;;;;;;5031309;28;20853;-76
2022/09/08 09:49:03;;;;;;;14.20;2.60;;;16.70;99.90;;;;;;5031166;28;20405;-76
2022/09/08 09:51:45;;;;;;;12.60;2.60;;;16.70;99.90;;;;;;5011619;28;20379;-76
2022/09/08 09:54:35;;;;;;;14.37;2.57;;;16.70;99.90;;;;;;5011872;28;20398;-76
2022/09/08 09:57:41;;;;;;;11.30;2.65;;;16.70;99.90;;;;;;5011574;28;20385;-76
2022/09/08 10:00:21;;;;;;;12.75;2.70;;;16.70;99.90;;;;;;5011561;28;20470;-75
2022/09/08 10:03:05;;;;;;;11.60;2.63;;;16.70;99.90;;;;;;5050435;28;20796;-76
2022/09/08 10:05:44;;;;;;;11.25;2.65;;;16.70;99.90;;;;;;5071231;28;20768;-76
2022/09/08 10:08:17;;;;;;;9.02;2.67;;;16.70;99.90;;;;;;5070688;28;20385;-76
2022/09/08 10:10:52;;;;;;;11.23;2.90;;;16.70;99.90;;;;;;5071189;28;20397;-76
2022/09/08 10:13:42;;;;;;;13.43;3.05;;;16.80;99.90;;;;;;5070647;28;20398;-76
2022/09/08 10:16:47;;;;;;;14.52;3.05;;;16.80;99.90;;;;;;5071308;28;20611;-76
2022/09/08 10:19:56;;;;;;;12.18;2.65;;;16.80;99.90;;;;;;5071401;28;20935;-76
2022/09/08 10:22:29;;;;;;;11.82;2.92;;;16.80;99.90;;;;;;5070942;28;20366;-76
2022/09/08 10:25:15;;;;;;;14.40;2.75;;;16.80;99.90;;;;;;5070588;28;20386;-76
2022/09/08 10:28:03;;;;;;;12.15;2.60;;;16.70;99.90;;;;;;5088631;28;20376;-76
2022/09/08 10:30:59;;;;;;;15.38;2.90;;;16.70;99.90;;;;;;5092544;28;20372;-76
2022/09/08 10:33:40;;;;;;;12.82;2.60;;;16.70;99.90;;;;;;5092567;28;20906;-76
2022/09/08 10:36:12;;;;;;;12.63;2.63;;;16.70;99.90;;;;;;5092693;28;20392;-76
2022/09/08 10:39:02;;;;;;;8.13;2.10;;;16.70;99.90;;;;;;5092594;28;20361;-76
2022/09/08 10:42:00;;;;;;;10.15;2.47;;;16.60;99.90;;;;;;5092683;28;20365;-75
2022/09/08 10:44:49;;;;;;;10.07;2.55;;;16.60;99.90;;;;;;5092611;28;20364;-76
2022/09/08 10:47:53;;;;;;;13.25;2.50;;;16.60;99.90;;;;;;5093214;28;20455;-75
2022/09/08 10:50:22;;;;;;;10.00;2.50;;;16.60;99.90;;;;;;5092523;28;20376;-75
2022/09/08 10:53:04;;;;;;;11.15;2.53;;;16.50;99.90;;;;;;5092593;28;20407;-75
2022/09/08 10:55:57;;;;;;;11.60;2.58;;;16.60;99.90;;;;;;5092982;28;20762;-75
2022/09/08 10:58:58;;;;;;;8.80;2.42;;;16.60;99.90;;;;;;5030521;28;20388;-75
2022/09/08 11:02:08;;;;;;;11.40;2.73;;;16.60;99.90;;;;;;5030083;28;20456;-77
2022/09/08 11:05:13;;;;;;;12.67;2.90;;;16.60;99.90;;;;;;4971779;28;20830;-76
2022/09/08 11:08:10;;;;;;;13.18;3.80;;;16.50;99.90;;;;;;4971945;28;20374;-76
2022/09/08 11:11:13;;;;;;;14.60;3.92;;;16.50;99.90;;;;;;4971995;28;20394;-76
2022/09/08 11:14:02;;;;;;;15.80;3.95;;;16.40;99.90;;;;;;4971257;28;20786;-76
2022/09/08 11:16:53;;;;;;;10.65;2.78;;;16.50;99.90;;;;;;4971473;28;20398;-75
2022/09/08 11:19:38;;;;;;;8.45;2.03;;;16.50;99.90;;;;;;4972076;28;20378;-75
2022/09/08 11:22:37;;;;;;;10.57;2.22;;;16.50;99.90;;;;;;4971290;28;20457;-75
2022/09/08 11:25:28;;;;;;;9.80;2.20;;;16.50;99.90;;;;;;4971268;28;20379;-76
2022/09/08 11:28:27;;;;;;;9.93;2.25;;;16.50;99.90;;;;;;4971155;28;20390;-77
2022/09/08 11:31:15;;;;;;;6.85;2.03;;;16.50;99.90;;;;;;4971115;28;20472;-76
2022/09/08 11:34:09;;;;;;;9.20;2.03;;;16.50;99.90;;;;;;4972646;28;20762;-76
2022/09/08 11:37:12;;;;;;;10.38;2.58;;;16.40;99.90;;;;;;5008665;28;20398;-76
2022/09/08 11:40:00;;;;;;;10.55;2.30;;;16.50;99.90;;;;;;5017178;28;20379;-76
2022/09/08 11:42:46;;;;;;;9.02;2.17;;;16.40;99.90;;;;;;5095878;28;20368;-76
2022/09/08 11:45:52;;;;;;;9.93;2.35;;;16.40;99.90;;;;;;5095927;28;20444;-76
2022/09/08 11:48:29;;;;;;;9.18;2.65;;;16.40;99.90;;;;;;5095791;28;20406;-76
2022/09/08 11:51:35;;;;;;;10.75;2.50;;;16.40;99.90;;;;;;5096316;28;20375;-76
2022/09/08 11:54:30;;;;;;;12.70;2.67;;;16.20;99.90;;;;;;5033463;28;20386;-76
2022/09/08 11:57:30;;;;;;;7.78;2.63;;;16.10;99.90;;;;;;5033285;28;20404;-77
2022/09/08 12:00:04;;;;;;;12.43;2.60;;;16.00;99.90;;;;;;5033318;28;20369;-76
2022/09/08 12:02:49;;;;;;;11.48;3.00;;;15.90;99.90;;;;;;5033224;28;20854;-75
2022/09/08 12:05:35;;;;;;;11.07;2.72;;;15.80;99.90;;;;;;5033439;28;20377;-75
2022/09/08 12:08:11;;;;;;;9.75;2.88;;;15.80;99.90;;;;;;5033079;28;20370;-76
2022/09/08 12:10:38;;;;;;;11.05;2.85;;;15.70;99.90;;;;;;5034345;28;20865;-75
2022/09/08 12:13:11;;;;;;;11.45;3.03;;;15.70;99.90;;;;;;5034523;28;20413;-75
2022/09/08 12:15:56;;;;;;;9.88;2.85;;;15.60;99.90;;;;;;5036403;28;20377;-75
2022/09/08 12:18:44;;;;;;;10.13;2.70;;;15.60;99.90;;;;;;5036621;28;20786;-75
2022/09/08 12:21:29;;;;;;;10.83;2.80;;;15.60;99.90;;;;;;5034399;28;20405;-75
2022/09/08 12:24:32;;;;;;;13.20;3.03;;;15.60;99.90;;;;;;5034276;28;20370;-75
2022/09/08 12:27:39;;;;;;;14.32;3.00;;;15.60;99.90;;;;;;5033433;28;20388;-75
2022/09/08 12:30:26;;;;;;;11.77;2.80;;;15.50;99.90;;;;;;5027994;28;20765;-74
2022/09/08 12:33:36;;;;;;;11.68;2.78;;;15.50;99.90;;;;;;5052724;28;21052;-75
2022/09/08 12:36:35;;;;;;;12.23;2.80;;;15.40;99.90;;;;;;5052620;28;20375;-75
2022/09/08 12:39:57;;;;;;;11.18;2.85;;;15.40;99.90;;;;;;5052721;28;20380;-75
2022/09/08 12:42:51;;;;;;;12.50;3.20;;;15.40;99.90;;;;;;5032676;28;20540;-74
2022/09/08 12:45:37;;;;;;;12.60;2.75;;;15.30;99.90;;;;;;5031389;28;20934;-75
2022/09/08 12:48:29;;;;;;;11.87;2.80;;;15.30;99.90;;;;;;5032530;28;20366;-74
2022/09/08 12:51:05;;;;;;;10.75;2.63;;;15.30;99.90;;;;;;5032382;28;20382;-75
2022/09/08 12:53:51;;;;;;;12.13;2.60;;;15.30;99.90;;;;;;5033077;28;20405;-75
2022/09/08 12:56:43;;;;;;;12.15;2.72;;;15.30;99.90;;;;;;5033123;28;20464;-74
2022/09/08 12:59:27;;;;;;;12.45;2.70;;;15.20;99.90;;;;;;5032103;28;20381;-74
2022/09/08 13:02:08;;;;;;;11.70;3.00;;;15.20;99.90;;;;;;5032879;28;20373;-75
2022/09/08 13:04:35;;;;;;;13.43;3.03;;;15.20;99.90;;;;;;5032475;28;20943;-75
2022/09/08 13:07:09;;;;;;;11.55;3.20;;;15.20;99.90;;;;;;5032266;28;20432;-75
2022/09/08 13:09:58;;;;;;;11.40;3.20;;;15.10;99.90;;;;;;5031685;28;20425;-75
2022/09/08 13:12:51;;;;;;;13.35;3.38;;;15.10;99.90;;;;;;5031831;28;20403;-76
2022/09/08 13:15:26;;;;;;;12.02;3.60;;;15.10;99.90;;;;;;4992823;28;20385;-75
2022/09/08 13:18:11;;;;;;;10.02;3.50;;;15.10;99.90;;;;;;4993651;28;20369;-76
2022/09/08 13:20:40;;;;;;;12.38;3.50;;;15.10;99.90;;;;;;5012256;28;20380;-75
2022/09/08 13:23:43;;;;;;;12.00;3.80;;;15.10;99.90;;;;;;5011919;28;20871;-75
2022/09/08 13:26:10;;;;;;;11.88;3.85;;;15.10;99.90;;;;;;4953661;29;20996;-76
2022/09/08 13:28:55;;;;;;;11.38;3.47;;;15.10;99.90;;;;;;4954305;29;20853;-74
2022/09/08 13:32:06;;;;;;;14.32;3.47;;;15.10;99.90;;;;;;4953908;29;20369;-74
2022/09/08 13:34:33;;;;;;;11.70;3.20;;;15.10;99.90;;;;;;4972736;28;20783;-74
2022/09/08 13:37:30;;;;;;;11.13;3.17;;;15.10;99.90;;;;;;4973337;28;20541;-75
2022/09/08 13:40:17;;;;;;;9.82;2.70;;;15.10;99.90;;;;;;4973065;28;20378;-74
2022/09/08 13:43:10;;;;;;;9.55;2.80;;;15.10;99.90;;;;;;4972625;28;20391;-75
2022/09/08 13:45:47;;;;;;;10.50;2.50;;;15.10;99.90;;;;;;4972431;28;20398;-75
2022/09/08 13:48:28;;;;;;;9.63;2.60;;;15.00;99.90;;;;;;4973161;28;20389;-75